sensor_id;sensor_type;location;lat;lon;timestamp;P1;durP1;ratioP1;P2;durP2;ratioP2
3959;SDS011;1994;48.640;8.894;2023-02-03T03:14:19;0.97;;;0.80;;
3959;SDS011;1994;48.640;8.894;2023-02-03T03:17:23;1.10;;;1.10;;
3959;SDS011;1994;48.640;8.894;2023-02-03T03:19:49;1.20;;;1.10;;
3959;SDS011;1994;48.640;8.894;2023-02-03T03:22:19;1.13;;;1.00;;
3959;SDS011;1994;48.640;8.894;2023-02-03T03:24:59;1.07;;;1.03;;
3959;SDS011;1994;48.640;8.894;2023-02-03T03:27:36;0.80;;;0.80;;
3959;SDS011;1994;48.640;8.894;2023-02-03T03:30:06;0.60;;;0.60;;
3959;SDS011;1994;48.640;8.894;2023-02-03T03:32:36;0.70;;;0.70;;
3959;SDS011;1994;48.640;8.894;2023-02-03T03:35:03;0.90;;;0.70;;
3959;SDS011;1994;48.640;8.894;2023-02-03T03:37:33;0.70;;;0.70;;
3959;SDS011;1994;48.640;8.894;2023-02-03T03:42:56;0.70;;;0.70;;
3959;SDS011;1994;48.640;8.894;2023-02-03T03:45:30;0.70;;;0.70;;
3959;SDS011;1994;48.640;8.894;2023-02-03T03:48:26;0.90;;;0.90;;
3959;SDS011;1994;48.640;8.894;2023-02-03T03:51:09;0.70;;;0.70;;
3959;SDS011;1994;48.640;8.894;2023-02-03T03:54:04;0.80;;;0.77;;
3959;SDS011;1994;48.640;8.894;2023-02-03T03:56:36;0.70;;;0.70;;
3959;SDS011;1994;48.640;8.894;2023-02-03T03:59:30;1.07;;;0.70;;
3959;SDS011;1994;48.640;8.894;2023-02-03T04:02:01;0.80;;;0.80;;
3959;SDS011;1994;48.640;8.894;2023-02-03T04:04:28;0.70;;;0.70;;
3959;SDS011;1994;48.640;8.894;2023-02-03T04:06:56;0.80;;;0.80;;
3959;SDS011;1994;48.640;8.894;2023-02-03T04:09:22;0.70;;;0.70;;
3959;SDS011;1994;48.640;8.894;2023-02-03T04:11:58;0.70;;;0.70;;
3959;SDS011;1994;48.640;8.894;2023-02-03T04:14:28;0.70;;;0.70;;
3959;SDS011;1994;48.640;8.894;2023-02-03T04:16:55;1.00;;;1.00;;
3959;SDS011;1994;48.640;8.894;2023-02-03T04:19:22;0.80;;;0.80;;
3959;SDS011;1994;48.640;8.894;2023-02-03T04:21:48;2.70;;;1.10;;
3959;SDS011;1994;48.640;8.894;2023-02-03T04:24:14;0.70;;;0.70;;
3959;SDS011;1994;48.640;8.894;2023-02-03T04:26:43;1.00;;;1.00;;
3959;SDS011;1994;48.640;8.894;2023-02-03T04:29:11;1.27;;;1.00;;
3959;SDS011;1994;48.640;8.894;2023-02-03T04:31:37;0.80;;;0.80;;
3959;SDS011;1994;48.640;8.894;2023-02-03T04:34:03;0.70;;;0.70;;
3959;SDS011;1994;48.640;8.894;2023-02-03T04:36:30;3.37;;;1.23;;
3959;SDS011;1994;48.640;8.894;2023-02-03T04:38:56;0.90;;;0.80;;
3959;SDS011;1994;48.640;8.894;2023-02-03T04:41:21;0.90;;;0.90;;
3959;SDS011;1994;48.640;8.894;2023-02-03T04:43:47;0.70;;;0.70;;
3959;SDS011;1994;48.640;8.894;2023-02-03T04:46:13;0.80;;;0.80;;
3959;SDS011;1994;48.640;8.894;2023-02-03T04:48:39;1.10;;;1.00;;
3959;SDS011;1994;48.640;8.894;2023-02-03T04:51:07;0.70;;;0.70;;
3959;SDS011;1994;48.640;8.894;2023-02-03T04:53:34;1.20;;;1.10;;
3959;SDS011;1994;48.640;8.894;2023-02-03T04:56:00;1.40;;;0.97;;
3959;SDS011;1994;48.640;8.894;2023-02-03T04:58:26;0.80;;;0.80;;
3959;SDS011;1994;48.640;8.894;2023-02-03T05:00:55;1.73;;;1.30;;
3959;SDS011;1994;48.640;8.894;2023-02-03T05:03:21;1.40;;;1.30;;
3959;SDS011;1994;48.640;8.894;2023-02-03T05:05:48;0.83;;;0.83;;
3959;SDS011;1994;48.640;8.894;2023-02-03T05:08:14;3.70;;;1.10;;
3959;SDS011;1994;48.640;8.894;2023-02-03T05:10:40;1.63;;;1.53;;
3959;SDS011;1994;48.640;8.894;2023-02-03T05:13:06;0.90;;;0.90;;
3959;SDS011;1994;48.640;8.894;2023-02-03T05:15:31;1.00;;;1.00;;
3959;SDS011;1994;48.640;8.894;2023-02-03T05:17:57;1.70;;;1.60;;
3959;SDS011;1994;48.640;8.894;2023-02-03T05:20:23;1.23;;;1.13;;
3959;SDS011;1994;48.640;8.894;2023-02-03T05:22:49;0.80;;;0.80;;
3959;SDS011;1994;48.640;8.894;2023-02-03T05:25:15;1.17;;;1.07;;
3959;SDS011;1994;48.640;8.894;2023-02-03T05:27:41;1.03;;;1.03;;
3959;SDS011;1994;48.640;8.894;2023-02-03T05:30:07;1.10;;;1.00;;
3959;SDS011;1994;48.640;8.894;2023-02-03T05:32:34;2.30;;;0.90;;
3959;SDS011;1994;48.640;8.894;2023-02-03T05:35:00;0.77;;;0.77;;
3959;SDS011;1994;48.640;8.894;2023-02-03T05:37:26;0.90;;;0.90;;
3959;SDS011;1994;48.640;8.894;2023-02-03T05:39:52;1.00;;;1.00;;
3959;SDS011;1994;48.640;8.894;2023-02-03T05:42:17;3.30;;;2.13;;
3959;SDS011;1994;48.640;8.894;2023-02-03T05:44:43;3.03;;;2.73;;
3959;SDS011;1994;48.640;8.894;2023-02-03T05:47:09;2.40;;;1.50;;
3959;SDS011;1994;48.640;8.894;2023-02-03T05:49:35;3.63;;;2.83;;
3959;SDS011;1994;48.640;8.894;2023-02-03T05:52:01;1.47;;;1.37;;
3959;SDS011;1994;48.640;8.894;2023-02-03T05:54:26;2.80;;;2.40;;
3959;SDS011;1994;48.640;8.894;2023-02-03T05:56:52;12.00;;;5.97;;
3959;SDS011;1994;48.640;8.894;2023-02-03T05:59:18;8.80;;;3.80;;
3959;SDS011;1994;48.640;8.894;2023-02-03T06:01:44;0.90;;;0.90;;
3959;SDS011;1994;48.640;8.894;2023-02-03T06:04:10;2.63;;;1.10;;
3959;SDS011;1994;48.640;8.894;2023-02-03T06:06:36;1.07;;;0.73;;
3959;SDS011;1994;48.640;8.894;2023-02-03T06:09:05;0.80;;;0.80;;
3959;SDS011;1994;48.640;8.894;2023-02-03T06:11:33;0.70;;;0.70;;
3959;SDS011;1994;48.640;8.894;2023-02-03T06:14:00;0.80;;;0.80;;
3959;SDS011;1994;48.640;8.894;2023-02-03T06:16:27;2.40;;;0.70;;
3959;SDS011;1994;48.640;8.894;2023-02-03T06:18:54;0.90;;;0.77;;
3959;SDS011;1994;48.640;8.894;2023-02-03T06:21:25;0.70;;;0.70;;
3959;SDS011;1994;48.640;8.894;2023-02-03T06:23:52;0.87;;;0.83;;
3959;SDS011;1994;48.640;8.894;2023-02-03T06:26:18;1.27;;;1.17;;
3959;SDS011;1994;48.640;8.894;2023-02-03T06:28:44;1.00;;;1.00;;
3959;SDS011;1994;48.640;8.894;2023-02-03T06:31:10;10.70;;;5.53;;
3959;SDS011;1994;48.640;8.894;2023-02-03T06:33:36;0.97;;;0.97;;
3959;SDS011;1994;48.640;8.894;2023-02-03T06:36:02;1.07;;;1.07;;
3959;SDS011;1994;48.640;8.894;2023-02-03T06:38:28;1.20;;;1.10;;
3959;SDS011;1994;48.640;8.894;2023-02-03T06:40:54;0.90;;;0.90;;
3959;SDS011;1994;48.640;8.894;2023-02-03T06:43:19;1.43;;;1.33;;
3959;SDS011;1994;48.640;8.894;2023-02-03T06:45:46;0.93;;;0.80;;
3959;SDS011;1994;48.640;8.894;2023-02-03T06:48:12;0.90;;;0.90;;
3959;SDS011;1994;48.640;8.894;2023-02-03T06:50:38;0.90;;;0.90;;
3959;SDS011;1994;48.640;8.894;2023-02-03T06:53:04;4.63;;;1.00;;
3959;SDS011;1994;48.640;8.894;2023-02-03T06:55:30;1.33;;;1.23;;
3959;SDS011;1994;48.640;8.894;2023-02-03T06:57:56;1.10;;;1.00;;
3959;SDS011;1994;48.640;8.894;2023-02-03T07:00:22;1.13;;;1.13;;
3959;SDS011;1994;48.640;8.894;2023-02-03T07:02:55;1.53;;;1.20;;
3959;SDS011;1994;48.640;8.894;2023-02-03T07:05:22;5.80;;;1.00;;
3959;SDS011;1994;48.640;8.894;2023-02-03T07:07:49;2.50;;;1.20;;
3959;SDS011;1994;48.640;8.894;2023-02-03T07:10:16;1.37;;;1.27;;
3959;SDS011;1994;48.640;8.894;2023-02-03T07:12:42;1.37;;;1.33;;
3959;SDS011;1994;48.640;8.894;2023-02-03T07:15:08;1.47;;;1.37;;
3959;SDS011;1994;48.640;8.894;2023-02-03T07:17:35;1.33;;;1.23;;
3959;SDS011;1994;48.640;8.894;2023-02-03T07:20:01;1.13;;;1.00;;
3959;SDS011;1994;48.640;8.894;2023-02-03T07:22:28;1.30;;;1.20;;
3959;SDS011;1994;48.640;8.894;2023-02-03T07:24:54;1.00;;;1.00;;
3959;SDS011;1994;48.640;8.894;2023-02-03T07:27:19;1.70;;;1.20;;
3959;SDS011;1994;48.640;8.894;2023-02-03T07:29:45;1.90;;;1.67;;
3959;SDS011;1994;48.640;8.894;2023-02-03T07:32:11;1.33;;;1.30;;
3959;SDS011;1994;48.640;8.894;2023-02-03T07:34:37;1.60;;;1.50;;
3959;SDS011;1994;48.640;8.894;2023-02-03T07:37:02;1.40;;;1.30;;
3959;SDS011;1994;48.640;8.894;2023-02-03T07:39:28;1.73;;;1.63;;
3959;SDS011;1994;48.640;8.894;2023-02-03T07:41:54;2.10;;;1.90;;
3959;SDS011;1994;48.640;8.894;2023-02-03T07:44:20;1.50;;;1.40;;
3959;SDS011;1994;48.640;8.894;2023-02-03T07:46:46;1.73;;;1.63;;
3959;SDS011;1994;48.640;8.894;2023-02-03T07:49:11;3.03;;;1.50;;
3959;SDS011;1994;48.640;8.894;2023-02-03T07:51:38;1.87;;;1.77;;
3959;SDS011;1994;48.640;8.894;2023-02-03T07:54:04;4.47;;;2.87;;
3959;SDS011;1994;48.640;8.894;2023-02-03T07:56:30;1.53;;;1.43;;
3959;SDS011;1994;48.640;8.894;2023-02-03T07:58:57;1.87;;;1.77;;
3959;SDS011;1994;48.640;8.894;2023-02-03T08:01:24;1.83;;;1.73;;
3959;SDS011;1994;48.640;8.894;2023-02-03T08:03:50;2.23;;;1.67;;
3959;SDS011;1994;48.640;8.894;2023-02-03T08:06:16;2.20;;;2.00;;
3959;SDS011;1994;48.640;8.894;2023-02-03T08:08:42;4.10;;;2.50;;
3959;SDS011;1994;48.640;8.894;2023-02-03T08:11:08;2.00;;;1.90;;
3959;SDS011;1994;48.640;8.894;2023-02-03T08:13:35;3.20;;;1.90;;
3959;SDS011;1994;48.640;8.894;2023-02-03T08:16:01;2.40;;;2.20;;
3959;SDS011;1994;48.640;8.894;2023-02-03T08:18:27;2.17;;;1.70;;
3959;SDS011;1994;48.640;8.894;2023-02-03T08:20:53;2.70;;;2.43;;
3959;SDS011;1994;48.640;8.894;2023-02-03T08:23:19;4.50;;;2.80;;
3959;SDS011;1994;48.640;8.894;2023-02-03T08:25:48;2.97;;;2.23;;
3959;SDS011;1994;48.640;8.894;2023-02-03T08:28:16;1.87;;;1.77;;
3959;SDS011;1994;48.640;8.894;2023-02-03T08:30:42;7.73;;;2.23;;
3959;SDS011;1994;48.640;8.894;2023-02-03T08:33:08;3.20;;;1.90;;
3959;SDS011;1994;48.640;8.894;2023-02-03T08:35:34;2.00;;;1.80;;
3959;SDS011;1994;48.640;8.894;2023-02-03T08:38:00;2.00;;;1.90;;
3959;SDS011;1994;48.640;8.894;2023-02-03T08:40:26;1.87;;;1.77;;
3959;SDS011;1994;48.640;8.894;2023-02-03T08:42:51;1.43;;;1.33;;
3959;SDS011;1994;48.640;8.894;2023-02-03T08:45:18;3.47;;;1.67;;
3959;SDS011;1994;48.640;8.894;2023-02-03T08:47:44;1.50;;;1.40;;
3959;SDS011;1994;48.640;8.894;2023-02-03T08:50:10;1.80;;;1.70;;
3959;SDS011;1994;48.640;8.894;2023-02-03T08:52:36;2.80;;;2.57;;
3959;SDS011;1994;48.640;8.894;2023-02-03T08:55:02;1.67;;;1.57;;
3959;SDS011;1994;48.640;8.894;2023-02-03T08:57:30;1.57;;;1.23;;
3959;SDS011;1994;48.640;8.894;2023-02-03T08:59:58;4.30;;;3.90;;
3959;SDS011;1994;48.640;8.894;2023-02-03T09:02:24;2.10;;;1.97;;
3959;SDS011;1994;48.640;8.894;2023-02-03T09:04:50;1.80;;;1.70;;
3959;SDS011;1994;48.640;8.894;2023-02-03T09:07:16;1.37;;;1.30;;
3959;SDS011;1994;48.640;8.894;2023-02-03T09:09:42;9.60;;;2.20;;
3959;SDS011;1994;48.640;8.894;2023-02-03T09:12:08;3.03;;;1.83;;
3959;SDS011;1994;48.640;8.894;2023-02-03T09:14:35;3.10;;;2.33;;
3959;SDS011;1994;48.640;8.894;2023-02-03T09:17:01;1.80;;;1.70;;
3959;SDS011;1994;48.640;8.894;2023-02-03T09:19:29;2.60;;;2.40;;
3959;SDS011;1994;48.640;8.894;2023-02-03T09:21:55;1.60;;;1.50;;
3959;SDS011;1994;48.640;8.894;2023-02-03T09:24:22;2.30;;;1.97;;
3959;SDS011;1994;48.640;8.894;2023-02-03T09:26:48;2.07;;;1.87;;
3959;SDS011;1994;48.640;8.894;2023-02-03T09:29:14;1.60;;;1.43;;
3959;SDS011;1994;48.640;8.894;2023-02-03T09:31:40;1.40;;;1.30;;
3959;SDS011;1994;48.640;8.894;2023-02-03T09:34:06;2.47;;;1.53;;
3959;SDS011;1994;48.640;8.894;2023-02-03T09:36:32;0.93;;;0.93;;
3959;SDS011;1994;48.640;8.894;2023-02-03T09:38:59;1.00;;;1.00;;
3959;SDS011;1994;48.640;8.894;2023-02-03T09:46:46;1.10;;;1.10;;
3959;SDS011;1994;48.640;8.894;2023-02-03T09:54:49;0.90;;;0.90;;
3959;SDS011;1994;48.640;8.894;2023-02-03T09:58:04;1.60;;;0.87;;
3959;SDS011;1994;48.640;8.894;2023-02-03T10:06:08;1.37;;;0.83;;
3959;SDS011;1994;48.640;8.894;2023-02-03T10:12:10;0.70;;;0.70;;
3959;SDS011;1994;48.640;8.894;2023-02-03T10:15:02;1.20;;;1.10;;
3959;SDS011;1994;48.640;8.894;2023-02-03T10:18:01;0.90;;;0.90;;
3959;SDS011;1994;48.640;8.894;2023-02-03T10:20:44;0.77;;;0.77;;
3959;SDS011;1994;48.640;8.894;2023-02-03T10:23:19;0.97;;;0.97;;
3959;SDS011;1994;48.640;8.894;2023-02-03T10:26:09;1.20;;;1.10;;
3959;SDS011;1994;48.640;8.894;2023-02-03T10:28:49;2.80;;;1.30;;
3959;SDS011;1994;48.640;8.894;2023-02-03T10:31:22;2.20;;;1.07;;
3959;SDS011;1994;48.640;8.894;2023-02-03T10:33:55;1.00;;;1.00;;
3959;SDS011;1994;48.640;8.894;2023-02-03T10:36:57;1.03;;;1.03;;
3959;SDS011;1994;48.640;8.894;2023-02-03T10:39:49;2.03;;;1.20;;
3959;SDS011;1994;48.640;8.894;2023-02-03T10:42:16;0.90;;;0.90;;
3959;SDS011;1994;48.640;8.894;2023-02-03T10:44:48;3.70;;;1.50;;
3959;SDS011;1994;48.640;8.894;2023-02-03T10:50:19;0.70;;;0.70;;
3959;SDS011;1994;48.640;8.894;2023-02-03T10:52:48;1.00;;;0.90;;
3959;SDS011;1994;48.640;8.894;2023-02-03T10:57:46;0.87;;;0.87;;
3959;SDS011;1994;48.640;8.894;2023-02-03T11:00:29;0.90;;;0.90;;
3959;SDS011;1994;48.640;8.894;2023-02-03T11:03:05;0.60;;;0.60;;
3959;SDS011;1994;48.640;8.894;2023-02-03T11:06:01;0.57;;;0.57;;
3959;SDS011;1994;48.640;8.894;2023-02-03T11:08:40;0.90;;;0.90;;
3959;SDS011;1994;48.640;8.894;2023-02-03T11:11:13;1.23;;;0.80;;
3959;SDS011;1994;48.640;8.894;2023-02-03T11:16:29;0.77;;;0.77;;
3959;SDS011;1994;48.640;8.894;2023-02-03T11:19:13;1.13;;;0.80;;
3959;SDS011;1994;48.640;8.894;2023-02-03T11:24:27;1.10;;;1.10;;
3959;SDS011;1994;48.640;8.894;2023-02-03T11:27:02;1.23;;;1.23;;
3959;SDS011;1994;48.640;8.894;2023-02-03T11:29:42;1.33;;;1.23;;
3959;SDS011;1994;48.640;8.894;2023-02-03T11:34:59;1.70;;;1.60;;
3959;SDS011;1994;48.640;8.894;2023-02-03T11:37:38;1.00;;;0.90;;
3959;SDS011;1994;48.640;8.894;2023-02-03T11:42:32;1.23;;;1.13;;
3959;SDS011;1994;48.640;8.894;2023-02-03T11:48:01;3.80;;;2.27;;
3959;SDS011;1994;48.640;8.894;2023-02-03T11:53:27;1.17;;;1.17;;
3959;SDS011;1994;48.640;8.894;2023-02-03T12:06:10;0.97;;;0.97;;
3959;SDS011;1994;48.640;8.894;2023-02-03T12:09:07;1.00;;;0.93;;
3959;SDS011;1994;48.640;8.894;2023-02-03T12:14:54;1.57;;;1.47;;
3959;SDS011;1994;48.640;8.894;2023-02-03T12:20:30;1.37;;;1.27;;
3959;SDS011;1994;48.640;8.894;2023-02-03T12:23:45;1.10;;;1.10;;
3959;SDS011;1994;48.640;8.894;2023-02-03T12:26:55;1.87;;;1.50;;
3959;SDS011;1994;48.640;8.894;2023-02-03T12:29:55;3.67;;;2.37;;
3959;SDS011;1994;48.640;8.894;2023-02-03T12:32:48;2.47;;;1.80;;
3959;SDS011;1994;48.640;8.894;2023-02-03T12:35:26;5.37;;;2.90;;
3959;SDS011;1994;48.640;8.894;2023-02-03T12:41:00;0.97;;;0.87;;
3959;SDS011;1994;48.640;8.894;2023-02-03T12:43:42;4.73;;;1.87;;
3959;SDS011;1994;48.640;8.894;2023-02-03T12:46:26;1.53;;;1.37;;
3959;SDS011;1994;48.640;8.894;2023-02-03T12:49:12;1.40;;;1.30;;
3959;SDS011;1994;48.640;8.894;2023-02-03T12:51:49;0.90;;;0.90;;
3959;SDS011;1994;48.640;8.894;2023-02-03T13:08:38;0.70;;;0.70;;
3959;SDS011;1994;48.640;8.894;2023-02-03T13:11:27;1.43;;;1.03;;
3959;SDS011;1994;48.640;8.894;2023-02-03T13:17:19;1.50;;;0.67;;
3959;SDS011;1994;48.640;8.894;2023-02-03T13:20:01;1.23;;;1.13;;
3959;SDS011;1994;48.640;8.894;2023-02-03T13:22:39;2.13;;;1.23;;
3959;SDS011;1994;48.640;8.894;2023-02-03T13:25:08;0.83;;;0.80;;
3959;SDS011;1994;48.640;8.894;2023-02-03T13:28:11;1.70;;;1.60;;
3959;SDS011;1994;48.640;8.894;2023-02-03T13:33:51;0.80;;;0.80;;
3959;SDS011;1994;48.640;8.894;2023-02-03T13:42:27;0.80;;;0.80;;
3959;SDS011;1994;48.640;8.894;2023-02-03T13:45:05;1.60;;;1.50;;
3959;SDS011;1994;48.640;8.894;2023-02-03T13:47:38;0.80;;;0.80;;
3959;SDS011;1994;48.640;8.894;2023-02-03T13:50:20;1.23;;;1.13;;
3959;SDS011;1994;48.640;8.894;2023-02-03T13:58:01;1.73;;;1.20;;
3959;SDS011;1994;48.640;8.894;2023-02-03T14:03:17;0.73;;;0.73;;
3959;SDS011;1994;48.640;8.894;2023-02-03T14:05:48;1.30;;;1.20;;
3959;SDS011;1994;48.640;8.894;2023-02-03T14:17:02;0.93;;;0.93;;
3959;SDS011;1994;48.640;8.894;2023-02-03T14:21:54;1.00;;;0.90;;
3959;SDS011;1994;48.640;8.894;2023-02-03T14:24:42;0.90;;;0.90;;
3959;SDS011;1994;48.640;8.894;2023-02-03T14:27:19;1.33;;;1.23;;
3959;SDS011;1994;48.640;8.894;2023-02-03T14:32:54;0.80;;;0.80;;
3959;SDS011;1994;48.640;8.894;2023-02-03T14:35:30;2.30;;;1.87;;
3959;SDS011;1994;48.640;8.894;2023-02-03T14:38:08;2.27;;;1.87;;
3959;SDS011;1994;48.640;8.894;2023-02-03T14:46:12;0.87;;;0.87;;
3959;SDS011;1994;48.640;8.894;2023-02-03T15:11:22;1.00;;;1.00;;
3959;SDS011;1994;48.640;8.894;2023-02-03T15:16:57;0.83;;;0.83;;
3959;SDS011;1994;48.640;8.894;2023-02-03T15:19:37;0.70;;;0.70;;
3959;SDS011;1994;48.640;8.894;2023-02-03T15:22:22;0.90;;;0.90;;
3959;SDS011;1994;48.640;8.894;2023-02-03T15:24:55;0.87;;;0.87;;
3959;SDS011;1994;48.640;8.894;2023-02-03T15:27:27;0.90;;;0.90;;
3959;SDS011;1994;48.640;8.894;2023-02-03T15:29:55;0.93;;;0.90;;
3959;SDS011;1994;48.640;8.894;2023-02-03T15:32:27;0.90;;;0.90;;
3959;SDS011;1994;48.640;8.894;2023-02-03T15:35:03;0.90;;;0.90;;
3959;SDS011;1994;48.640;8.894;2023-02-03T15:38:24;1.00;;;0.90;;
3959;SDS011;1994;48.640;8.894;2023-02-03T15:40:32;0.90;;;0.90;;
3959;SDS011;1994;48.640;8.894;2023-02-03T15:43:20;1.50;;;1.40;;
3959;SDS011;1994;48.640;8.894;2023-02-03T15:49:13;1.00;;;1.00;;
3959;SDS011;1994;48.640;8.894;2023-02-03T15:51:50;1.00;;;1.00;;
3959;SDS011;1994;48.640;8.894;2023-02-03T15:54:39;0.80;;;0.80;;
3959;SDS011;1994;48.640;8.894;2023-02-03T15:57:17;1.03;;;1.03;;
3959;SDS011;1994;48.640;8.894;2023-02-03T15:59:58;1.00;;;1.00;;
3959;SDS011;1994;48.640;8.894;2023-02-03T16:02:33;1.10;;;1.10;;
3959;SDS011;1994;48.640;8.894;2023-02-03T16:05:19;1.00;;;0.90;;
3959;SDS011;1994;48.640;8.894;2023-02-03T16:10:59;0.87;;;0.87;;
3959;SDS011;1994;48.640;8.894;2023-02-03T16:13:26;1.50;;;1.40;;
3959;SDS011;1994;48.640;8.894;2023-02-03T16:16:05;1.27;;;1.17;;
3959;SDS011;1994;48.640;8.894;2023-02-03T16:18:39;2.00;;;1.80;;
3959;SDS011;1994;48.640;8.894;2023-02-03T16:21:23;1.47;;;1.07;;
3959;SDS011;1994;48.640;8.894;2023-02-03T16:23:53;2.27;;;1.90;;
3959;SDS011;1994;48.640;8.894;2023-02-03T16:26:21;1.57;;;1.00;;
3959;SDS011;1994;48.640;8.894;2023-02-03T16:31:55;1.00;;;1.00;;
3959;SDS011;1994;48.640;8.894;2023-02-03T16:34:40;1.20;;;1.07;;
3959;SDS011;1994;48.640;8.894;2023-02-03T16:40:13;1.03;;;0.90;;
3959;SDS011;1994;48.640;8.894;2023-02-03T16:43:04;3.00;;;2.20;;
3959;SDS011;1994;48.640;8.894;2023-02-03T16:45:58;1.17;;;1.07;;
3959;SDS011;1994;48.640;8.894;2023-02-03T16:48:44;0.93;;;0.93;;
3959;SDS011;1994;48.640;8.894;2023-02-03T16:51:32;1.00;;;1.00;;
3959;SDS011;1994;48.640;8.894;2023-02-03T16:54:05;1.00;;;0.83;;
3959;SDS011;1994;48.640;8.894;2023-02-03T16:56:36;0.70;;;0.70;;
3959;SDS011;1994;48.640;8.894;2023-02-03T16:59:03;1.97;;;1.10;;
3959;SDS011;1994;48.640;8.894;2023-02-03T17:01:28;1.30;;;0.90;;
3959;SDS011;1994;48.640;8.894;2023-02-03T17:03:54;0.70;;;0.70;;
3959;SDS011;1994;48.640;8.894;2023-02-03T17:06:20;1.00;;;1.00;;
3959;SDS011;1994;48.640;8.894;2023-02-03T17:08:46;0.70;;;0.70;;
3959;SDS011;1994;48.640;8.894;2023-02-03T17:11:15;0.77;;;0.77;;
3959;SDS011;1994;48.640;8.894;2023-02-03T17:13:45;1.10;;;1.00;;
3959;SDS011;1994;48.640;8.894;2023-02-03T17:16:13;1.20;;;1.13;;
3959;SDS011;1994;48.640;8.894;2023-02-03T17:18:42;0.90;;;0.90;;
3959;SDS011;1994;48.640;8.894;2023-02-03T17:21:11;1.30;;;1.03;;
3959;SDS011;1994;48.640;8.894;2023-02-03T17:23:40;0.80;;;0.80;;
3959;SDS011;1994;48.640;8.894;2023-02-03T17:26:06;1.10;;;1.00;;
3959;SDS011;1994;48.640;8.894;2023-02-03T17:28:32;1.33;;;1.23;;
3959;SDS011;1994;48.640;8.894;2023-02-03T17:30:59;1.23;;;1.13;;
3959;SDS011;1994;48.640;8.894;2023-02-03T17:33:28;1.10;;;1.10;;
3959;SDS011;1994;48.640;8.894;2023-02-03T17:36:02;0.80;;;0.80;;
3959;SDS011;1994;48.640;8.894;2023-02-03T17:38:35;1.43;;;0.90;;
3959;SDS011;1994;48.640;8.894;2023-02-03T17:41:09;3.53;;;1.87;;
3959;SDS011;1994;48.640;8.894;2023-02-03T17:43:37;1.60;;;1.50;;
3959;SDS011;1994;48.640;8.894;2023-02-03T17:46:14;3.00;;;1.83;;
3959;SDS011;1994;48.640;8.894;2023-02-03T17:48:46;1.67;;;1.57;;
3959;SDS011;1994;48.640;8.894;2023-02-03T17:51:13;3.07;;;1.20;;
3959;SDS011;1994;48.640;8.894;2023-02-03T17:53:45;1.10;;;1.00;;
3959;SDS011;1994;48.640;8.894;2023-02-03T17:56:19;2.03;;;1.83;;
3959;SDS011;1994;48.640;8.894;2023-02-03T17:58:53;1.00;;;1.00;;
3959;SDS011;1994;48.640;8.894;2023-02-03T18:01:24;2.00;;;1.50;;
3959;SDS011;1994;48.640;8.894;2023-02-03T18:03:51;1.50;;;1.40;;
3959;SDS011;1994;48.640;8.894;2023-02-03T18:06:25;0.90;;;0.90;;
3959;SDS011;1994;48.640;8.894;2023-02-03T18:08:53;1.10;;;1.10;;
3959;SDS011;1994;48.640;8.894;2023-02-03T18:11:25;1.97;;;1.47;;
3959;SDS011;1994;48.640;8.894;2023-02-03T18:13:51;1.60;;;1.50;;
3959;SDS011;1994;48.640;8.894;2023-02-03T18:16:19;1.30;;;1.23;;
3959;SDS011;1994;48.640;8.894;2023-02-03T18:18:49;1.30;;;1.20;;
3959;SDS011;1994;48.640;8.894;2023-02-03T18:21:17;0.80;;;0.80;;
3959;SDS011;1994;48.640;8.894;2023-02-03T18:23:45;1.77;;;1.20;;
3959;SDS011;1994;48.640;8.894;2023-02-03T18:26:12;4.13;;;1.77;;
3959;SDS011;1994;48.640;8.894;2023-02-03T18:28:43;1.13;;;1.13;;
3959;SDS011;1994;48.640;8.894;2023-02-03T18:31:10;1.90;;;1.80;;
3959;SDS011;1994;48.640;8.894;2023-02-03T18:33:40;2.17;;;2.00;;
3959;SDS011;1994;48.640;8.894;2023-02-03T18:36:07;5.00;;;3.10;;
3959;SDS011;1994;48.640;8.894;2023-02-03T18:38:34;13.40;;;5.90;;
3959;SDS011;1994;48.640;8.894;2023-02-03T18:41:08;16.50;;;6.67;;
3959;SDS011;1994;48.640;8.894;2023-02-03T18:43:39;4.33;;;3.13;;
3959;SDS011;1994;48.640;8.894;2023-02-03T18:46:09;5.10;;;2.97;;
3959;SDS011;1994;48.640;8.894;2023-02-03T18:48:44;14.17;;;6.77;;
3959;SDS011;1994;48.640;8.894;2023-02-03T18:51:14;6.57;;;4.77;;
3959;SDS011;1994;48.640;8.894;2023-02-03T18:53:42;4.23;;;3.83;;
3959;SDS011;1994;48.640;8.894;2023-02-03T18:58:47;3.27;;;2.80;;
3959;SDS011;1994;48.640;8.894;2023-02-03T19:01:26;2.93;;;2.60;;
3959;SDS011;1994;48.640;8.894;2023-02-03T19:03:55;3.00;;;2.70;;
3959;SDS011;1994;48.640;8.894;2023-02-03T19:06:23;2.90;;;2.70;;
3959;SDS011;1994;48.640;8.894;2023-02-03T19:08:54;1.50;;;1.40;;
3959;SDS011;1994;48.640;8.894;2023-02-03T19:11:21;1.60;;;1.50;;
3959;SDS011;1994;48.640;8.894;2023-02-03T19:13:53;2.53;;;2.37;;
3959;SDS011;1994;48.640;8.894;2023-02-03T19:16:18;1.10;;;1.10;;
3959;SDS011;1994;48.640;8.894;2023-02-03T19:18:45;1.40;;;1.30;;
3959;SDS011;1994;48.640;8.894;2023-02-03T19:21:12;2.00;;;1.63;;
3959;SDS011;1994;48.640;8.894;2023-02-03T19:23:38;1.53;;;1.43;;
3959;SDS011;1994;48.640;8.894;2023-02-03T19:26:05;1.87;;;1.70;;
3959;SDS011;1994;48.640;8.894;2023-02-03T19:28:31;2.10;;;1.90;;
3959;SDS011;1994;48.640;8.894;2023-02-03T19:31:04;2.97;;;2.73;;
3959;SDS011;1994;48.640;8.894;2023-02-03T19:33:39;3.10;;;2.33;;
3959;SDS011;1994;48.640;8.894;2023-02-03T19:36:05;2.20;;;2.00;;
3959;SDS011;1994;48.640;8.894;2023-02-03T19:38:33;1.80;;;1.20;;
3959;SDS011;1994;48.640;8.894;2023-02-03T19:41:00;2.47;;;1.60;;
3959;SDS011;1994;48.640;8.894;2023-02-03T19:43:26;4.80;;;1.77;;
3959;SDS011;1994;48.640;8.894;2023-02-03T19:45:54;5.93;;;2.20;;
3959;SDS011;1994;48.640;8.894;2023-02-03T19:48:20;1.37;;;1.27;;
3959;SDS011;1994;48.640;8.894;2023-02-03T19:50:49;1.33;;;1.07;;
3959;SDS011;1994;48.640;8.894;2023-02-03T19:53:16;1.20;;;1.10;;
3959;SDS011;1994;48.640;8.894;2023-02-03T19:55:43;0.87;;;0.87;;
3959;SDS011;1994;48.640;8.894;2023-02-03T19:58:10;1.10;;;1.10;;
3959;SDS011;1994;48.640;8.894;2023-02-03T20:00:38;0.90;;;0.90;;
3959;SDS011;1994;48.640;8.894;2023-02-03T20:03:07;0.90;;;0.90;;
3959;SDS011;1994;48.640;8.894;2023-02-03T20:05:34;1.20;;;1.10;;
3959;SDS011;1994;48.640;8.894;2023-02-03T20:08:03;1.40;;;1.30;;
3959;SDS011;1994;48.640;8.894;2023-02-03T20:10:30;1.93;;;1.50;;
3959;SDS011;1994;48.640;8.894;2023-02-03T20:12:56;1.07;;;1.07;;
3959;SDS011;1994;48.640;8.894;2023-02-03T20:15:22;0.90;;;0.90;;
3959;SDS011;1994;48.640;8.894;2023-02-03T20:17:48;1.10;;;1.10;;
3959;SDS011;1994;48.640;8.894;2023-02-03T20:20:15;1.30;;;1.20;;
3959;SDS011;1994;48.640;8.894;2023-02-03T20:22:51;2.70;;;1.60;;
3959;SDS011;1994;48.640;8.894;2023-02-03T20:25:17;0.80;;;0.80;;
3959;SDS011;1994;48.640;8.894;2023-02-03T20:27:44;1.30;;;1.10;;
3959;SDS011;1994;48.640;8.894;2023-02-03T20:30:10;1.43;;;1.20;;
3959;SDS011;1994;48.640;8.894;2023-02-03T20:32:42;1.20;;;1.10;;
3959;SDS011;1994;48.640;8.894;2023-02-03T20:35:08;1.00;;;1.00;;
3959;SDS011;1994;48.640;8.894;2023-02-03T20:37:35;1.13;;;1.13;;
3959;SDS011;1994;48.640;8.894;2023-02-03T20:40:37;0.90;;;0.90;;
3959;SDS011;1994;48.640;8.894;2023-02-03T20:42:56;0.90;;;0.90;;
3959;SDS011;1994;48.640;8.894;2023-02-03T20:45:44;1.13;;;1.10;;
3959;SDS011;1994;48.640;8.894;2023-02-03T20:48:11;1.80;;;1.13;;
3959;SDS011;1994;48.640;8.894;2023-02-03T20:50:39;1.87;;;1.77;;
3959;SDS011;1994;48.640;8.894;2023-02-03T20:53:14;4.80;;;2.33;;
3959;SDS011;1994;48.640;8.894;2023-02-03T20:55:49;5.37;;;3.40;;
3959;SDS011;1994;48.640;8.894;2023-02-03T20:58:25;4.47;;;3.57;;
3959;SDS011;1994;48.640;8.894;2023-02-03T21:00:52;1.97;;;1.77;;
3959;SDS011;1994;48.640;8.894;2023-02-03T21:03:21;3.40;;;1.80;;
3959;SDS011;1994;48.640;8.894;2023-02-03T21:06:10;2.43;;;0.80;;
3959;SDS011;1994;48.640;8.894;2023-02-03T21:08:37;1.73;;;0.80;;
3959;SDS011;1994;48.640;8.894;2023-02-03T21:11:13;0.80;;;0.80;;
3959;SDS011;1994;48.640;8.894;2023-02-03T21:13:43;0.60;;;0.60;;
3959;SDS011;1994;48.640;8.894;2023-02-03T21:16:18;0.80;;;0.80;;
3959;SDS011;1994;48.640;8.894;2023-02-03T21:18:52;0.70;;;0.70;;
3959;SDS011;1994;48.640;8.894;2023-02-03T21:21:28;0.70;;;0.70;;
3959;SDS011;1994;48.640;8.894;2023-02-03T21:26:47;0.70;;;0.70;;
3959;SDS011;1994;48.640;8.894;2023-02-03T21:29:19;0.60;;;0.60;;
3959;SDS011;1994;48.640;8.894;2023-02-03T21:32:08;0.93;;;0.70;;
3959;SDS011;1994;48.640;8.894;2023-02-03T21:34:43;0.60;;;0.60;;
3959;SDS011;1994;48.640;8.894;2023-02-03T21:39:46;0.70;;;0.70;;